KMSY/MSY METAR and TAF weather

Enter ICAO airport designator
Station Type Date Time Source
KMSY METAR 2024/04/17 18:53 UTC NOAA

KMSY 171853Z 15009KT 10SM FEW028 BKN160 OVC200 27/20 A3006 RMK AO2 SLP182 T02670200


Station Type Date Time Source
KMSY Decoded METAR 2024/04/17 18:53 UTC NOAA

NEW ORLEANS INTERNATIONAL AIRPORT, LA, United States (KMSY) 30-00N 90-15W 5M
Apr 17, 2024 - 02:53 PM EDT / 2024.04.17 1853 UTC
Wind: from the SSE (150 degrees) at 10 MPH (9 KT):0
Visibility: 10 mile(s):0
Sky conditions: overcast
Temperature: 80.1 F (26.7 C)
Dew Point: 68.0 F (20.0 C)
Relative Humidity: 66%
Pressure (altimeter): 30.06 in. Hg (1017 hPa)
ob: KMSY 171853Z 15009KT 10SM FEW028 BKN160 OVC200 27/20 A3006 RMK AO2 SLP182 T02670200
cycle: 19

Station Type Date Time Source
KMSY TAF 2024/04/17 18:24 UTC NOAA